Terminal Aerodrome Forecast
Issued by NWS Billings, MT

Home | Current Version | Previous Version | Text Only | Print | Product List | Glossary On
Versions: 1 2 3 4 5 6 7 8 9 10 11 12 13 14
000
FTUS45 KBYZ 201125
TAFBIL
TAF
KBIL 201125Z 2012/2112 25010KT P6SM FEW100 SCT200
     FM201900 23015G30KT P6SM SCT100 SCT200
     FM210100 25011KT P6SM SCT100 BKN200=

USA.gov is the U.S. government's official web portal to all federal, state and local government web resources and services.